createdAt,value
2022-12-16T00:00:15.909Z,-8.30
2022-12-16T00:01:19.954Z,-8.30
2022-12-16T00:02:22.665Z,-8.40
2022-12-16T00:03:24.325Z,-8.40
2022-12-16T00:04:26.069Z,-8.40
2022-12-16T00:05:29.117Z,-8.30
2022-12-16T00:06:32.604Z,-8.30
2022-12-16T00:07:34.998Z,-8.30
2022-12-16T00:08:39.400Z,-8.20
2022-12-16T00:09:41.010Z,-8.20
2022-12-16T00:10:55.099Z,-8.20
2022-12-16T00:11:56.743Z,-8.20
2022-12-16T00:12:58.330Z,-8.20
2022-12-16T00:14:00.373Z,-8.20
2022-12-16T00:15:02.016Z,-8.20
2022-12-16T00:16:15.389Z,-8.20
2022-12-16T00:17:17.031Z,-8.20
2022-12-16T00:18:19.986Z,-8.20
2022-12-16T00:19:21.794Z,-8.20
2022-12-16T00:20:23.345Z,-8.20
2022-12-16T00:21:29.390Z,-8.20
2022-12-16T00:22:31.020Z,-8.20
2022-12-16T00:23:33.943Z,-8.20
2022-12-16T00:24:36.000Z,-8.20
2022-12-16T00:25:37.582Z,-8.10
2022-12-16T00:26:39.197Z,-8.10
2022-12-16T00:27:40.777Z,-8.10
2022-12-16T00:28:43.747Z,-8.20
2022-12-16T00:29:45.398Z,-8.10
2022-12-16T00:30:49.876Z,-8.10
2022-12-16T00:31:51.673Z,-8.20
2022-12-16T00:32:54.270Z,-8.20
2022-12-16T00:33:57.219Z,-8.20
2022-12-16T00:34:58.997Z,-8.20
2022-12-16T00:36:00.572Z,-8.30
2022-12-16T00:37:02.172Z,-8.30
2022-12-16T00:38:05.942Z,-8.40
2022-12-16T00:39:07.540Z,-8.40
2022-12-16T00:40:09.806Z,-8.40
2022-12-16T00:41:11.374Z,-8.40
2022-12-16T00:42:12.948Z,-8.40
2022-12-16T00:43:14.820Z,-8.40
2022-12-16T00:44:16.806Z,-8.40
2022-12-16T00:45:19.245Z,-8.50
2022-12-16T00:46:20.894Z,-8.60
2022-12-16T00:47:22.529Z,-8.60
2022-12-16T00:48:24.133Z,-8.70
2022-12-16T00:49:25.684Z,-8.70
2022-12-16T00:50:27.653Z,-8.70
2022-12-16T00:51:29.213Z,-8.70
2022-12-16T00:52:30.928Z,-8.70
2022-12-16T00:53:32.995Z,-8.60
2022-12-16T00:54:34.899Z,-8.50
2022-12-16T00:55:36.524Z,-8.50
2022-12-16T00:56:38.110Z,-8.50
2022-12-16T00:57:40.113Z,-8.50
2022-12-16T00:58:42.492Z,-8.50
2022-12-16T00:59:44.118Z,-8.40
2022-12-16T01:00:45.802Z,-8.40
2022-12-16T01:01:47.510Z,-8.40
2022-12-16T01:02:51.483Z,-8.30
2022-12-16T01:03:58.322Z,-8.40
2022-12-16T01:04:59.937Z,-8.50
2022-12-16T01:06:01.676Z,-8.50
2022-12-16T01:07:03.351Z,-8.60
2022-12-16T01:08:05.058Z,-8.60
2022-12-16T01:09:06.680Z,-8.50
2022-12-16T01:10:09.441Z,-8.40
2022-12-16T01:11:11.074Z,-8.50
2022-12-16T01:12:12.647Z,-8.60
2022-12-16T01:13:14.471Z,-8.70
2022-12-16T01:14:16.078Z,-8.70
2022-12-16T01:15:18.664Z,-8.80
2022-12-16T01:16:20.395Z,-8.80
2022-12-16T01:17:22.213Z,-8.80
2022-12-16T01:18:23.865Z,-8.80
2022-12-16T01:19:25.575Z,-8.80
2022-12-16T01:20:27.162Z,-8.80
2022-12-16T01:21:28.780Z,-8.80
2022-12-16T01:22:32.564Z,-8.80
2022-12-16T01:23:34.953Z,-8.80
2022-12-16T01:24:36.797Z,-8.80
2022-12-16T01:25:38.378Z,-8.80
2022-12-16T01:26:40.078Z,-8.80
2022-12-16T01:27:41.775Z,-8.80
2022-12-16T01:28:43.703Z,-8.70
2022-12-16T01:29:45.296Z,-8.70
2022-12-16T01:30:46.882Z,-8.70
2022-12-16T01:31:48.537Z,-8.70
2022-12-16T01:32:50.853Z,-8.60
2022-12-16T01:33:52.679Z,-8.60
2022-12-16T01:34:55.609Z,-8.50
2022-12-16T01:36:06.505Z,-8.50
2022-12-16T01:37:12.498Z,-8.50
2022-12-16T01:38:14.086Z,-8.50
2022-12-16T01:39:15.688Z,-8.50
2022-12-16T01:40:21.137Z,-8.50
2022-12-16T01:41:23.233Z,-8.50
2022-12-16T01:42:28.646Z,-8.50
2022-12-16T01:43:36.536Z,-8.50
2022-12-16T01:44:38.475Z,-8.60
2022-12-16T01:45:40.422Z,-8.60
2022-12-16T01:46:44.007Z,-8.60
2022-12-16T01:47:45.881Z,-8.60
2022-12-16T01:48:53.706Z,-8.60
2022-12-16T01:49:59.100Z,-8.70
2022-12-16T01:51:18.395Z,-8.70
2022-12-16T01:52:27.513Z,-8.70
2022-12-16T01:53:30.571Z,-8.70
2022-12-16T01:54:38.799Z,-8.70
2022-12-16T01:55:48.740Z,-8.70
2022-12-16T01:56:58.437Z,-8.70
2022-12-16T01:58:05.723Z,-8.70
2022-12-16T01:59:08.253Z,-8.70
2022-12-16T02:00:10.935Z,-8.70
2022-12-16T02:01:14.722Z,-8.70
2022-12-16T02:02:16.873Z,-8.70
2022-12-16T02:03:18.960Z,-8.70
2022-12-16T02:04:20.878Z,-8.70
2022-12-16T02:05:22.770Z,-8.70
2022-12-16T02:06:24.543Z,-8.80
2022-12-16T02:07:26.478Z,-8.90
2022-12-16T02:08:28.040Z,-9.00
2022-12-16T02:09:29.623Z,-9.10
2022-12-16T02:10:43.351Z,-9.20
2022-12-16T02:12:10.665Z,-9.30
2022-12-16T02:13:15.145Z,-9.30
2022-12-16T02:14:41.550Z,-9.20
2022-12-16T02:16:16.795Z,-9.10
2022-12-16T02:17:58.040Z,-9.00
2022-12-16T02:19:10.699Z,-9.00
2022-12-16T02:20:52.799Z,-8.90
2022-12-16T02:22:32.535Z,-8.90
2022-12-16T02:23:42.907Z,-8.90
2022-12-16T02:25:06.087Z,-9.00
2022-12-16T02:26:29.893Z,-9.00
2022-12-16T02:28:02.073Z,-9.00
2022-12-16T02:29:37.729Z,-9.10
2022-12-16T02:30:51.547Z,-9.20
2022-12-16T02:32:20.601Z,-9.20
2022-12-16T02:33:25.241Z,-9.10
2022-12-16T02:34:29.559Z,-9.20
2022-12-16T02:35:43.748Z,-9.10
2022-12-16T02:37:05.165Z,-9.20
2022-12-16T02:38:38.070Z,-9.20
2022-12-16T02:39:46.589Z,-9.10
2022-12-16T02:40:56.899Z,-9.10
2022-12-16T02:42:17.134Z,-9.10
2022-12-16T02:44:31.232Z,-9.10
2022-12-16T02:45:34.119Z,-9.10
2022-12-16T02:46:51.416Z,-9.10
2022-12-16T02:47:53.911Z,-9.10
2022-12-16T02:48:56.829Z,-9.20
2022-12-16T02:49:59.538Z,-9.20
2022-12-16T02:51:01.496Z,-9.20
2022-12-16T02:52:03.160Z,-9.20
2022-12-16T02:53:05.993Z,-9.10
2022-12-16T02:54:09.241Z,-9.10
2022-12-16T02:55:11.533Z,-9.10
2022-12-16T02:56:41.063Z,-9.00
2022-12-16T02:58:01.146Z,-9.00
2022-12-16T02:59:15.481Z,-9.00
2022-12-16T03:00:23.271Z,-9.10
2022-12-16T03:01:35.129Z,-9.10
2022-12-16T03:02:53.430Z,-9.10
2022-12-16T03:03:57.485Z,-9.10
2022-12-16T03:05:10.307Z,-9.00
2022-12-16T03:06:15.796Z,-9.00
2022-12-16T03:07:19.835Z,-9.00
2022-12-16T03:08:28.472Z,-9.00
2022-12-16T03:09:34.121Z,-9.00
2022-12-16T03:10:41.886Z,-9.00
2022-12-16T03:11:45.489Z,-9.00
2022-12-16T03:12:47.185Z,-9.00
2022-12-16T03:13:52.991Z,-9.00
2022-12-16T03:14:55.141Z,-9.00
2022-12-16T03:16:00.032Z,-9.10
2022-12-16T03:17:02.858Z,-9.00
2022-12-16T03:18:07.832Z,-9.00
2022-12-16T03:19:11.746Z,-9.00
2022-12-16T03:20:21.895Z,-9.00
2022-12-16T03:21:29.458Z,-9.00
2022-12-16T03:22:35.276Z,-9.10
2022-12-16T03:23:54.093Z,-9.10
2022-12-16T03:24:56.448Z,-9.10
2022-12-16T03:26:06.217Z,-9.10
2022-12-16T03:27:19.576Z,-9.10
2022-12-16T03:28:27.939Z,-9.10
2022-12-16T03:30:01.804Z,-9.10
2022-12-16T03:31:19.647Z,-9.10
2022-12-16T03:32:39.146Z,-9.10
2022-12-16T03:34:03.942Z,-9.10
2022-12-16T03:35:21.890Z,-9.10
2022-12-16T03:36:26.270Z,-9.00
2022-12-16T03:37:31.881Z,-9.10
2022-12-16T03:38:34.665Z,-9.00
2022-12-16T03:39:44.939Z,-9.00
2022-12-16T03:40:46.691Z,-9.10
2022-12-16T03:41:51.974Z,-9.10
2022-12-16T03:42:55.269Z,-9.00
2022-12-16T03:43:57.100Z,-9.00
2022-12-16T03:44:58.882Z,-9.00
2022-12-16T03:46:05.355Z,-9.00
2022-12-16T03:47:07.043Z,-9.00
2022-12-16T03:48:10.718Z,-9.10
2022-12-16T03:49:12.338Z,-9.10
2022-12-16T03:50:14.156Z,-9.10
2022-12-16T03:51:16.468Z,-9.10
2022-12-16T03:52:18.112Z,-9.20
2022-12-16T03:53:19.792Z,-9.20
2022-12-16T03:54:21.588Z,-9.20
2022-12-16T03:55:23.327Z,-9.20
2022-12-16T03:56:24.887Z,-9.20
2022-12-16T03:57:26.467Z,-9.20
2022-12-16T03:58:28.088Z,-9.20
2022-12-16T03:59:29.735Z,-9.20
2022-12-16T04:00:31.386Z,-9.20
2022-12-16T04:01:33.167Z,-9.30
2022-12-16T04:02:35.043Z,-9.20
2022-12-16T04:03:37.795Z,-9.20
2022-12-16T04:04:39.498Z,-9.20
2022-12-16T04:05:41.094Z,-9.20
2022-12-16T04:06:42.678Z,-9.20
2022-12-16T04:07:44.316Z,-9.20
2022-12-16T04:08:47.453Z,-9.20
2022-12-16T04:09:50.109Z,-9.20
2022-12-16T04:11:11.482Z,-9.20
2022-12-16T04:12:31.924Z,-9.20
2022-12-16T04:13:52.366Z,-9.20
2022-12-16T04:15:12.720Z,-9.30
2022-12-16T04:16:35.106Z,-9.30
2022-12-16T04:17:55.565Z,-9.30
2022-12-16T04:19:15.989Z,-9.40
2022-12-16T04:20:36.836Z,-9.40
2022-12-16T04:21:57.273Z,-9.40
2022-12-16T04:23:17.775Z,-9.50
2022-12-16T04:24:21.059Z,-9.50
2022-12-16T04:25:32.655Z,-9.50
2022-12-16T04:26:53.295Z,-9.60
2022-12-16T04:27:54.910Z,-9.50
2022-12-16T04:28:56.500Z,-9.50
2022-12-16T04:30:16.812Z,-9.50
2022-12-16T04:31:18.580Z,-9.50
2022-12-16T04:32:20.262Z,-9.40
2022-12-16T04:33:41.429Z,-9.40
2022-12-16T04:34:43.041Z,-9.40
2022-12-16T04:36:04.446Z,-9.40
2022-12-16T04:37:24.778Z,-9.40
2022-12-16T04:38:45.051Z,-9.30
2022-12-16T04:40:05.485Z,-9.30
2022-12-16T04:41:25.969Z,-9.30
2022-12-16T04:42:46.245Z,-9.30
2022-12-16T04:44:06.870Z,-9.30
2022-12-16T04:45:27.832Z,-9.30
2022-12-16T04:46:48.212Z,-9.30
2022-12-16T04:48:08.472Z,-9.20
2022-12-16T04:49:28.875Z,-9.30
2022-12-16T04:50:49.310Z,-9.30
2022-12-16T04:52:09.751Z,-9.30
2022-12-16T04:53:30.441Z,-9.30
2022-12-16T04:54:51.040Z,-9.30
2022-12-16T04:56:11.267Z,-9.30
2022-12-16T04:57:48.412Z,-9.30
2022-12-16T04:59:08.583Z,-9.30
2022-12-16T05:00:29.540Z,-9.30
2022-12-16T05:01:50.223Z,-9.40
2022-12-16T05:03:10.618Z,-9.40
2022-12-16T05:04:30.778Z,-9.50
2022-12-16T05:05:50.953Z,-9.50
2022-12-16T05:07:11.366Z,-9.50
2022-12-16T05:08:31.732Z,-9.50
2022-12-16T05:09:52.082Z,-9.40
2022-12-16T05:11:12.449Z,-9.40
2022-12-16T05:12:32.813Z,-9.40
2022-12-16T05:13:53.203Z,-9.40
2022-12-16T05:15:13.543Z,-9.40
2022-12-16T05:16:33.921Z,-9.40
2022-12-16T05:17:54.256Z,-9.40
2022-12-16T05:19:15.074Z,-9.40
2022-12-16T05:20:35.339Z,-9.40
2022-12-16T05:21:55.671Z,-9.40
2022-12-16T05:23:16.064Z,-9.40
2022-12-16T05:24:36.549Z,-9.40
2022-12-16T05:25:57.102Z,-9.40
2022-12-16T05:27:17.558Z,-9.40
2022-12-16T05:28:38.050Z,-9.40
2022-12-16T05:29:58.453Z,-9.40
2022-12-16T05:31:18.756Z,-9.40
2022-12-16T05:32:38.996Z,-9.40
2022-12-16T05:33:59.277Z,-9.40
2022-12-16T05:35:19.631Z,-9.40
2022-12-16T05:36:40.144Z,-9.40
2022-12-16T05:38:00.547Z,-9.40
2022-12-16T05:39:20.959Z,-9.40
2022-12-16T05:40:41.282Z,-9.40
2022-12-16T05:42:01.529Z,-9.40
2022-12-16T05:43:21.813Z,-9.40
2022-12-16T05:44:42.332Z,-9.40
2022-12-16T05:46:02.826Z,-9.40
2022-12-16T05:47:23.048Z,-9.40
2022-12-16T05:48:47.752Z,-9.40
2022-12-16T05:50:08.237Z,-9.40
2022-12-16T05:51:28.787Z,-9.40
2022-12-16T05:52:49.201Z,-9.40
2022-12-16T05:54:09.824Z,-9.40
2022-12-16T05:55:33.884Z,-9.40
2022-12-16T05:56:54.833Z,-9.50
2022-12-16T05:58:15.427Z,-9.50
2022-12-16T05:59:35.911Z,-9.50
2022-12-16T06:00:56.440Z,-9.50
2022-12-16T06:02:16.960Z,-9.50
2022-12-16T06:03:37.531Z,-9.60
2022-12-16T06:04:58.467Z,-9.50
2022-12-16T06:06:18.884Z,-9.60
2022-12-16T06:07:39.642Z,-9.50
2022-12-16T06:08:59.966Z,-9.50
2022-12-16T06:10:20.376Z,-9.50
2022-12-16T06:11:40.693Z,-9.50
2022-12-16T06:13:04.208Z,-9.40
2022-12-16T06:14:24.727Z,-9.40
2022-12-16T06:15:45.341Z,-9.50
2022-12-16T06:17:05.623Z,-9.50
2022-12-16T06:18:26.027Z,-9.50
2022-12-16T06:19:46.378Z,-9.50
2022-12-16T06:21:06.910Z,-9.50
2022-12-16T06:24:43.167Z,-9.60
2022-12-16T06:26:03.400Z,-9.60
2022-12-16T06:27:24.160Z,-9.50
2022-12-16T06:28:46.021Z,-9.60
2022-12-16T06:30:06.324Z,-9.60
2022-12-16T06:31:27.209Z,-9.70
2022-12-16T06:32:47.688Z,-9.70
2022-12-16T06:34:07.967Z,-9.70
2022-12-16T06:35:28.565Z,-9.60
2022-12-16T06:36:48.933Z,-9.60
2022-12-16T06:38:09.714Z,-9.60
2022-12-16T06:39:30.149Z,-9.60
2022-12-16T06:40:50.579Z,-9.60
2022-12-16T06:42:10.895Z,-9.60
2022-12-16T06:43:31.663Z,-9.60
2022-12-16T06:44:52.426Z,-9.60
2022-12-16T06:46:13.073Z,-9.60
2022-12-16T06:47:33.486Z,-9.60
2022-12-16T06:48:53.931Z,-9.50
2022-12-16T06:50:14.172Z,-9.50
2022-12-16T06:51:34.659Z,-9.50
2022-12-16T06:52:55.133Z,-9.50
2022-12-16T06:54:16.014Z,-9.50
2022-12-16T06:55:36.503Z,-9.60
2022-12-16T06:56:56.784Z,-9.60
2022-12-16T06:58:17.708Z,-9.60
2022-12-16T06:59:38.457Z,-9.60
2022-12-16T07:00:59.061Z,-9.60
2022-12-16T07:02:19.433Z,-9.60
2022-12-16T07:03:39.853Z,-9.60
2022-12-16T07:05:00.480Z,-9.60
2022-12-16T07:06:20.934Z,-9.60
2022-12-16T07:07:41.361Z,-9.60
2022-12-16T07:09:01.741Z,-9.70
2022-12-16T07:10:22.809Z,-9.70
2022-12-16T07:11:43.152Z,-9.70
2022-12-16T07:13:03.616Z,-9.60
2022-12-16T07:14:24.145Z,-9.60
2022-12-16T07:15:44.528Z,-9.60
2022-12-16T07:17:04.889Z,-9.60
2022-12-16T07:18:25.319Z,-9.60
2022-12-16T07:19:45.739Z,-9.60
2022-12-16T07:21:06.190Z,-9.60
2022-12-16T07:22:26.634Z,-9.50
2022-12-16T07:23:47.077Z,-9.60
2022-12-16T07:25:07.337Z,-9.60
2022-12-16T07:26:27.685Z,-9.60
2022-12-16T07:27:48.189Z,-9.60
2022-12-16T07:29:08.703Z,-9.50
2022-12-16T07:30:29.637Z,-9.60
2022-12-16T07:31:50.138Z,-9.50
2022-12-16T07:33:10.172Z,-9.50
2022-12-16T07:34:31.754Z,-9.60
2022-12-16T07:35:53.804Z,-9.50
2022-12-16T07:37:14.404Z,-9.50
2022-12-16T07:38:34.864Z,-9.50
2022-12-16T07:39:55.677Z,-9.50
2022-12-16T07:41:15.927Z,-9.50
2022-12-16T07:42:37.836Z,-9.50
2022-12-16T07:43:58.021Z,-9.60
2022-12-16T07:45:18.407Z,-9.50
2022-12-16T07:46:38.697Z,-9.60
2022-12-16T07:48:06.208Z,-9.50
2022-12-16T07:49:26.741Z,-9.50
2022-12-16T07:50:47.302Z,-9.50
2022-12-16T07:52:07.626Z,-9.50
2022-12-16T07:53:31.304Z,-9.50
2022-12-16T07:54:51.797Z,-9.50
2022-12-16T07:56:13.193Z,-9.50
2022-12-16T07:57:33.640Z,-9.50
2022-12-16T07:58:54.011Z,-9.50
2022-12-16T08:00:15.793Z,-9.50
2022-12-16T08:01:36.214Z,-9.50
2022-12-16T08:02:56.630Z,-9.50
2022-12-16T08:04:17.112Z,-9.50
2022-12-16T08:05:37.623Z,-9.50
2022-12-16T08:06:58.015Z,-9.40
2022-12-16T08:08:18.364Z,-9.40
2022-12-16T08:09:38.878Z,-9.50
2022-12-16T08:10:59.244Z,-9.40
2022-12-16T08:12:19.595Z,-9.40
2022-12-16T08:13:40.417Z,-9.50
2022-12-16T08:15:00.714Z,-9.40
2022-12-16T08:16:21.190Z,-9.40
2022-12-16T08:17:41.452Z,-9.40
2022-12-16T08:19:06.197Z,-9.40
2022-12-16T08:20:30.846Z,-9.40
2022-12-16T08:21:51.283Z,-9.40
2022-12-16T08:23:11.526Z,-9.40
2022-12-16T08:24:31.819Z,-9.30
2022-12-16T08:25:52.345Z,-9.20
2022-12-16T08:27:15.697Z,-9.10
2022-12-16T08:28:36.177Z,-9.10
2022-12-16T08:29:56.454Z,-9.10
2022-12-16T08:31:16.887Z,-9.10
2022-12-16T08:32:37.163Z,-9.10
2022-12-16T08:33:57.680Z,-9.10
2022-12-16T08:35:18.264Z,-9.00
2022-12-16T08:36:38.724Z,-9.00
2022-12-16T08:37:59.001Z,-9.00
2022-12-16T08:39:19.342Z,-8.90
2022-12-16T08:40:39.609Z,-8.90
2022-12-16T08:42:00.156Z,-8.80
2022-12-16T08:43:20.604Z,-8.90
2022-12-16T08:44:40.939Z,-8.90
2022-12-16T08:46:01.877Z,-8.90
2022-12-16T08:47:22.522Z,-8.80
2022-12-16T08:48:42.821Z,-8.80
2022-12-16T08:50:03.209Z,-8.70
2022-12-16T08:51:24.697Z,-8.70
2022-12-16T08:52:45.203Z,-8.70
2022-12-16T08:54:05.827Z,-8.70
2022-12-16T08:55:29.683Z,-8.60
2022-12-16T08:56:50.269Z,-8.60
2022-12-16T08:58:14.351Z,-8.60
2022-12-16T08:59:34.606Z,-8.50
2022-12-16T09:00:54.908Z,-8.50
2022-12-16T09:02:16.355Z,-8.50
2022-12-16T09:03:37.405Z,-8.40
2022-12-16T09:04:58.193Z,-8.40
2022-12-16T09:06:18.687Z,-8.40
2022-12-16T09:07:38.840Z,-8.30
2022-12-16T09:08:59.422Z,-8.20
2022-12-16T09:10:19.733Z,-8.20
2022-12-16T09:11:40.058Z,-8.20
2022-12-16T09:13:00.543Z,-8.20
2022-12-16T09:14:40.863Z,-8.10
2022-12-16T09:16:01.112Z,-8.10
2022-12-16T09:17:21.414Z,-7.90
2022-12-16T09:18:41.718Z,-8.00
2022-12-16T09:20:02.083Z,-8.00
2022-12-16T09:21:22.572Z,-8.00
2022-12-16T09:22:43.043Z,-7.90
2022-12-16T09:24:03.189Z,-7.80
2022-12-16T09:25:23.472Z,-7.80
2022-12-16T09:26:48.393Z,-7.80
2022-12-16T09:28:08.823Z,-7.80
2022-12-16T09:29:29.124Z,-7.70
2022-12-16T09:30:49.716Z,-7.70
2022-12-16T09:32:11.126Z,-7.60
2022-12-16T09:33:31.848Z,-7.60
2022-12-16T09:34:52.501Z,-7.70
2022-12-16T09:36:12.995Z,-7.60
2022-12-16T09:37:33.490Z,-7.60
2022-12-16T09:38:53.957Z,-7.50
2022-12-16T09:40:14.827Z,-7.50
2022-12-16T09:41:56.781Z,-7.40
2022-12-16T09:43:48.504Z,-7.50
2022-12-16T09:45:29.030Z,-7.40
2022-12-16T09:47:11.110Z,-7.40
2022-12-16T09:48:56.896Z,-7.40
2022-12-16T09:50:17.550Z,-7.40
2022-12-16T09:51:39.197Z,-7.20
2022-12-16T09:53:10.697Z,-7.10
2022-12-16T09:54:34.655Z,-7.10
2022-12-16T09:56:03.019Z,-6.90
2022-12-16T09:57:23.976Z,-6.80
2022-12-16T09:58:47.993Z,-6.70
2022-12-16T10:00:15.626Z,-6.80
2022-12-16T10:01:36.176Z,-6.70
2022-12-16T10:03:01.765Z,-6.70
2022-12-16T10:04:25.965Z,-6.70
2022-12-16T10:05:55.949Z,-6.70
2022-12-16T10:07:19.742Z,-6.60
2022-12-16T10:08:48.022Z,-6.60
2022-12-16T10:10:36.504Z,-6.50
2022-12-16T10:12:35.038Z,-6.50
2022-12-16T10:14:15.976Z,-6.40
2022-12-16T10:16:01.412Z,-6.40
2022-12-16T10:17:31.164Z,-6.40
2022-12-16T10:19:16.206Z,-6.40
2022-12-16T10:20:48.353Z,-6.50
2022-12-16T10:22:38.023Z,-6.50
2022-12-16T10:24:17.711Z,-6.40
2022-12-16T10:26:11.730Z,-5.90
2022-12-16T10:27:38.063Z,-4.50
2022-12-16T10:29:06.731Z,-3.10
2022-12-16T10:30:33.968Z,-1.80
2022-12-16T10:31:55.911Z,-0.80
2022-12-16T10:33:17.197Z,0.00
2022-12-16T10:34:40.569Z,0.60
2022-12-16T10:36:08.048Z,1.20
2022-12-16T10:37:37.127Z,2.00
2022-12-16T10:39:19.197Z,2.30
2022-12-16T10:40:43.680Z,2.40
2022-12-16T10:42:07.305Z,2.60
2022-12-16T10:43:43.146Z,2.80
2022-12-16T10:45:14.008Z,2.90
2022-12-16T10:46:40.948Z,3.20
2022-12-16T10:48:01.608Z,3.50
2022-12-16T10:49:22.126Z,3.60
2022-12-16T10:50:42.596Z,3.60
2022-12-16T10:52:08.957Z,3.60
2022-12-16T10:53:34.869Z,3.60
2022-12-16T10:55:04.921Z,3.70
2022-12-16T10:56:51.580Z,3.90
2022-12-16T10:58:34.245Z,3.70
2022-12-16T10:59:58.949Z,3.90
2022-12-16T11:01:19.631Z,4.00
2022-12-16T11:02:43.187Z,4.00
2022-12-16T11:04:03.617Z,3.70
2022-12-16T11:05:50.601Z,3.60
2022-12-16T11:07:10.891Z,3.30
2022-12-16T11:09:03.605Z,3.40
2022-12-16T11:10:47.387Z,3.30
2022-12-16T11:12:21.390Z,3.30
2022-12-16T11:13:47.456Z,3.10
2022-12-16T11:15:31.467Z,2.70
2022-12-16T11:16:51.873Z,2.80
2022-12-16T11:18:25.471Z,2.60
2022-12-16T11:19:47.762Z,2.40
2022-12-16T11:21:29.496Z,2.60
2022-12-16T11:23:06.651Z,2.50
2022-12-16T11:24:31.871Z,2.00
2022-12-16T11:25:52.292Z,1.90
2022-12-16T11:27:15.310Z,1.70
2022-12-16T11:28:36.376Z,1.70
2022-12-16T11:30:12.048Z,1.70
2022-12-16T11:31:35.182Z,1.60
2022-12-16T11:32:57.744Z,1.40
2022-12-16T11:34:21.012Z,1.60
2022-12-16T11:35:46.572Z,1.60
2022-12-16T11:37:10.857Z,1.90
2022-12-16T11:38:45.673Z,2.10
2022-12-16T11:40:06.189Z,2.30
2022-12-16T11:41:33.634Z,2.50
2022-12-16T11:42:54.924Z,2.60
2022-12-16T11:44:19.045Z,2.70
2022-12-16T11:45:40.122Z,2.70
2022-12-16T11:47:00.667Z,2.60
2022-12-16T11:48:51.641Z,2.50
2022-12-16T11:50:12.155Z,2.60
2022-12-16T11:51:35.094Z,2.80
2022-12-16T11:52:56.507Z,2.90
2022-12-16T11:54:49.341Z,3.10
2022-12-16T11:56:16.012Z,3.20
2022-12-16T11:58:08.248Z,3.40
2022-12-16T11:59:44.492Z,3.30
2022-12-16T12:01:21.267Z,3.20
2022-12-16T12:02:56.168Z,3.20
2022-12-16T12:04:16.480Z,3.40
2022-12-16T12:05:43.577Z,3.80
2022-12-16T12:07:18.958Z,3.90
2022-12-16T12:08:42.412Z,3.90
2022-12-16T12:10:16.847Z,4.00
2022-12-16T12:11:50.348Z,4.20
2022-12-16T12:13:30.526Z,4.40
2022-12-16T12:15:05.604Z,4.70
2022-12-16T12:16:37.192Z,5.10
2022-12-16T12:18:15.364Z,5.20
2022-12-16T12:19:58.388Z,5.10
2022-12-16T12:21:30.995Z,5.10
2022-12-16T12:22:56.717Z,5.30
2022-12-16T12:24:25.263Z,5.10
2022-12-16T12:25:45.575Z,5.50
2022-12-16T12:27:21.281Z,5.60
2022-12-16T12:28:53.358Z,5.70
2022-12-16T12:30:33.043Z,5.40
2022-12-16T12:32:23.529Z,5.30
2022-12-16T12:34:10.583Z,5.00
2022-12-16T12:35:52.670Z,4.80
2022-12-16T12:37:28.132Z,4.80
2022-12-16T12:39:02.486Z,4.70
2022-12-16T12:40:47.974Z,4.80
2022-12-16T12:42:50.032Z,4.30
2022-12-16T12:44:24.948Z,4.10
2022-12-16T12:45:50.985Z,4.10
2022-12-16T12:47:20.842Z,3.90
2022-12-16T12:48:46.455Z,3.70
2022-12-16T12:50:19.027Z,3.40
2022-12-16T12:52:02.521Z,3.30
2022-12-16T12:53:45.184Z,3.30
2022-12-16T12:55:15.633Z,2.80
2022-12-16T12:57:00.881Z,2.70
2022-12-16T12:58:24.861Z,2.50
2022-12-16T13:00:01.718Z,2.40
2022-12-16T13:01:26.592Z,2.30
2022-12-16T13:02:53.558Z,2.10
2022-12-16T13:04:25.393Z,1.70
2022-12-16T13:05:49.364Z,1.30
2022-12-16T13:07:13.593Z,1.40
2022-12-16T13:09:18.015Z,1.30
2022-12-16T13:10:43.693Z,1.50
2022-12-16T13:12:25.556Z,1.40
2022-12-16T13:13:49.949Z,1.50
2022-12-16T13:15:13.527Z,1.40
2022-12-16T13:17:02.656Z,1.40
2022-12-16T13:18:23.127Z,1.20
2022-12-16T13:19:49.038Z,1.20
2022-12-16T13:21:15.310Z,1.20
2022-12-16T13:22:50.569Z,1.20
2022-12-16T13:24:10.950Z,1.20
2022-12-16T13:26:09.299Z,1.30
2022-12-16T13:27:53.713Z,1.20
2022-12-16T13:29:33.249Z,1.30
2022-12-16T13:30:54.145Z,1.30
2022-12-16T13:32:35.743Z,1.50
2022-12-16T13:33:56.083Z,1.40
2022-12-16T13:35:28.364Z,1.50
2022-12-16T13:36:53.433Z,1.70
2022-12-16T13:38:17.823Z,1.90
2022-12-16T13:39:48.793Z,2.20
2022-12-16T13:41:20.317Z,2.40
2022-12-16T13:42:58.443Z,2.50
2022-12-16T13:44:18.969Z,2.50
2022-12-16T13:46:20.115Z,2.50
2022-12-16T13:47:58.792Z,2.70
2022-12-16T13:49:57.595Z,2.60
2022-12-16T13:51:19.072Z,2.90
2022-12-16T13:52:59.704Z,3.00
2022-12-16T13:54:21.385Z,3.10
2022-12-16T13:55:50.036Z,2.90
2022-12-16T13:57:10.642Z,3.40
2022-12-16T13:58:52.263Z,3.40
2022-12-16T14:00:13.464Z,3.50
2022-12-16T14:01:41.048Z,3.70
2022-12-16T14:03:12.950Z,3.80
2022-12-16T14:04:43.889Z,3.80
2022-12-16T14:06:04.369Z,3.60
2022-12-16T14:07:25.099Z,3.40
2022-12-16T14:08:51.702Z,3.10
2022-12-16T14:10:12.283Z,3.10
2022-12-16T14:11:41.389Z,3.00
2022-12-16T14:13:18.276Z,2.90
2022-12-16T14:14:46.206Z,2.40
2022-12-16T14:16:17.365Z,2.10
2022-12-16T14:18:05.587Z,1.80
2022-12-16T14:19:32.826Z,1.90
2022-12-16T14:21:05.808Z,1.70
2022-12-16T14:22:44.841Z,1.40
2022-12-16T14:24:12.390Z,1.30
2022-12-16T14:25:36.447Z,1.00
2022-12-16T14:26:57.545Z,1.00
2022-12-16T14:28:19.192Z,1.00
2022-12-16T14:29:41.303Z,1.10
2022-12-16T14:31:02.296Z,1.00
2022-12-16T14:32:38.348Z,1.20
2022-12-16T14:33:59.637Z,1.20
2022-12-16T14:35:20.960Z,0.90
2022-12-16T14:36:47.084Z,0.90
2022-12-16T14:38:07.276Z,0.80
2022-12-16T14:39:38.812Z,0.70
2022-12-16T14:40:59.296Z,0.60
2022-12-16T14:42:19.873Z,0.30
2022-12-16T14:43:42.438Z,0.40
2022-12-16T14:45:06.728Z,0.20
2022-12-16T14:46:46.864Z,-0.10
2022-12-16T14:48:07.153Z,-0.30
2022-12-16T14:49:39.085Z,-0.40
2022-12-16T14:50:59.392Z,-0.40
2022-12-16T14:52:19.957Z,-0.50
2022-12-16T14:53:42.489Z,-0.70
2022-12-16T14:55:02.785Z,-0.80
2022-12-16T14:56:33.516Z,-0.90
2022-12-16T14:57:54.306Z,-1.10
2022-12-16T14:59:27.792Z,-1.20
2022-12-16T15:00:48.469Z,-1.30
2022-12-16T15:02:13.492Z,-1.40
2022-12-16T15:03:34.884Z,-1.50
2022-12-16T15:04:55.794Z,-1.60
2022-12-16T15:06:17.399Z,-1.70
2022-12-16T15:07:38.088Z,-1.70
2022-12-16T15:09:07.289Z,-1.80
2022-12-16T15:10:33.193Z,-2.00
2022-12-16T15:11:56.035Z,-2.10
2022-12-16T15:13:37.087Z,-2.30
2022-12-16T15:14:59.958Z,-2.30
2022-12-16T15:16:21.680Z,-2.40
2022-12-16T15:17:49.333Z,-2.50
2022-12-16T15:19:18.614Z,-2.60
2022-12-16T15:20:46.397Z,-2.70
2022-12-16T15:22:07.174Z,-2.90
2022-12-16T15:23:45.371Z,-3.00
2022-12-16T15:25:06.607Z,-2.90
2022-12-16T15:26:27.267Z,-3.00
2022-12-16T15:27:54.631Z,-3.10
2022-12-16T15:29:15.111Z,-3.20
2022-12-16T15:30:53.257Z,-3.30
2022-12-16T15:32:13.693Z,-3.40
2022-12-16T15:33:37.439Z,-3.50
2022-12-16T15:35:06.572Z,-3.60
2022-12-16T15:36:46.386Z,-3.60
2022-12-16T15:38:06.673Z,-3.60
2022-12-16T15:39:41.099Z,-3.70
2022-12-16T15:41:09.069Z,-3.70
2022-12-16T15:42:43.150Z,-3.60
2022-12-16T15:44:04.988Z,-3.70
2022-12-16T15:45:41.858Z,-3.70
2022-12-16T15:47:06.736Z,-3.60
2022-12-16T15:48:49.685Z,-3.70
2022-12-16T15:50:10.134Z,-3.80
2022-12-16T15:51:39.633Z,-3.90
2022-12-16T15:53:02.481Z,-4.00
2022-12-16T15:54:23.456Z,-4.00
2022-12-16T15:56:04.913Z,-4.10
2022-12-16T15:57:47.977Z,-4.10
2022-12-16T15:59:25.154Z,-4.20
2022-12-16T16:00:48.510Z,-4.20
2022-12-16T16:02:09.181Z,-4.20
2022-12-16T16:03:35.708Z,-4.20
2022-12-16T16:04:56.611Z,-4.30
2022-12-16T16:06:17.227Z,-4.30
2022-12-16T16:07:40.269Z,-4.20
2022-12-16T16:09:00.520Z,-4.20
2022-12-16T16:10:38.750Z,-4.20
2022-12-16T16:11:59.543Z,-4.20
2022-12-16T16:13:20.251Z,-4.30
2022-12-16T16:14:40.524Z,-4.30
2022-12-16T16:16:01.248Z,-4.30
2022-12-16T16:17:21.700Z,-4.30
2022-12-16T16:18:41.977Z,-4.40
2022-12-16T16:20:04.079Z,-4.40
2022-12-16T16:21:24.693Z,-4.40
2022-12-16T16:22:45.196Z,-4.40
2022-12-16T16:24:12.993Z,-4.50
2022-12-16T16:25:33.628Z,-4.50
2022-12-16T16:26:54.432Z,-4.50
2022-12-16T16:28:14.710Z,-4.40
2022-12-16T16:29:35.299Z,-4.50
2022-12-16T16:30:55.613Z,-4.50
2022-12-16T16:32:20.997Z,-4.40
2022-12-16T16:33:41.488Z,-4.40
2022-12-16T16:35:02.070Z,-4.50
2022-12-16T16:36:33.641Z,-4.60
2022-12-16T16:37:54.316Z,-4.60
2022-12-16T16:39:14.486Z,-4.60
2022-12-16T16:40:51.252Z,-4.70
2022-12-16T16:42:11.443Z,-4.70
2022-12-16T16:43:32.182Z,-4.60
2022-12-16T16:44:52.512Z,-4.60
2022-12-16T16:46:14.082Z,-4.60
2022-12-16T16:47:36.058Z,-4.70
2022-12-16T16:48:56.541Z,-4.80
2022-12-16T16:50:19.493Z,-4.90
2022-12-16T16:51:40.280Z,-4.90
2022-12-16T16:53:00.779Z,-5.00
2022-12-16T16:54:21.144Z,-5.00
2022-12-16T16:55:42.913Z,-5.10
2022-12-16T16:57:03.562Z,-5.00
2022-12-16T16:58:29.567Z,-4.90
2022-12-16T16:59:50.160Z,-5.00
2022-12-16T17:01:10.425Z,-5.10
2022-12-16T17:02:40.843Z,-5.10
2022-12-16T17:04:01.604Z,-5.10
2022-12-16T17:05:22.689Z,-5.20
2022-12-16T17:06:43.232Z,-5.20
2022-12-16T17:08:03.609Z,-5.20
2022-12-16T17:09:24.078Z,-5.20
2022-12-16T17:10:44.424Z,-5.20
2022-12-16T17:12:06.301Z,-5.20
2022-12-16T17:13:27.561Z,-5.10
2022-12-16T17:14:48.052Z,-5.00
2022-12-16T17:16:22.116Z,-4.90
2022-12-16T17:17:42.168Z,-5.00